Time;durP1;ratioP1;P1;durP2;ratioP2;P2;SDS_P1;SDS_P2;PMS_P1;PMS_P2;Temp;Humidity;BMP_temperature;BMP_pressure;BME280_temperature;BME280_humidity;BME280_pressure;Samples;Min_cycle;Max_cycle;Signal;HPM_P1;HPM_P2
2023/08/28 00:02:17;;;;;;;0.60;0.60;;;13.70;99.90;;;;;;4981801;28;20509;-78
2023/08/28 00:04:42;;;;;;;0.70;0.70;;;13.60;99.90;;;;;;4981213;28;20034;-78
2023/08/28 00:07:09;;;;;;;2.08;0.65;;;13.00;99.90;;;;;;4997491;28;20529;-78
2023/08/28 00:09:34;;;;;;;0.50;0.50;;;13.00;99.90;;;;;;4981117;28;20057;-77
2023/08/28 00:12:01;;;;;;;0.60;0.60;;;12.80;99.90;;;;;;4997372;28;20045;-78
2023/08/28 00:14:26;;;;;;;0.50;0.50;;;13.00;99.90;;;;;;4981403;28;20041;-78
2023/08/28 00:16:53;;;;;;;0.93;0.90;;;12.60;99.90;;;;;;4997291;28;20044;-78
2023/08/28 00:19:18;;;;;;;0.50;0.50;;;12.60;99.90;;;;;;4997117;28;20045;-77
2023/08/28 00:21:44;;;;;;;1.02;0.80;;;12.90;99.90;;;;;;4997272;28;20038;-77
2023/08/28 00:24:10;;;;;;;0.50;0.50;;;12.80;99.90;;;;;;4997356;28;20053;-77
2023/08/28 00:26:35;;;;;;;0.50;0.50;;;12.90;99.90;;;;;;4996384;28;20038;-81
2023/08/28 00:29:01;;;;;;;0.60;0.60;;;12.50;99.90;;;;;;4981028;28;20045;-81
2023/08/28 00:31:26;;;;;;;1.33;0.60;;;12.90;99.90;;;;;;4997155;28;20038;-81
2023/08/28 00:33:52;;;;;;;0.50;0.50;;;12.40;99.90;;;;;;4996767;28;20116;-81
2023/08/28 00:36:19;;;;;;;0.93;0.80;;;12.90;99.90;;;;;;4997197;28;20038;-81
2023/08/28 00:38:44;;;;;;;1.45;0.90;;;12.80;99.90;;;;;;4996738;28;20065;-81
2023/08/28 00:41:10;;;;;;;1.25;0.70;;;12.80;99.90;;;;;;4996775;28;20152;-81
2023/08/28 00:43:37;;;;;;;0.80;0.73;;;13.00;99.90;;;;;;4980584;28;20037;-81
2023/08/28 00:46:04;;;;;;;0.60;0.60;;;12.40;99.90;;;;;;4996962;28;20041;-78
2023/08/28 00:48:29;;;;;;;0.70;0.70;;;12.90;99.90;;;;;;4980512;28;20038;-78
2023/08/28 00:50:56;;;;;;;1.58;0.80;;;12.80;99.90;;;;;;4996566;28;20052;-77
2023/08/28 00:53:23;;;;;;;0.85;0.70;;;12.50;99.90;;;;;;4996785;28;20057;-78
2023/08/28 00:55:49;;;;;;;0.95;0.88;;;12.70;99.90;;;;;;4996504;28;20104;-77
2023/08/28 00:58:16;;;;;;;0.98;0.65;;;12.70;99.90;;;;;;4996514;28;20092;-78
2023/08/28 01:00:41;;;;;;;0.85;0.70;;;13.00;99.90;;;;;;4996432;28;20041;-77
2023/08/28 01:03:07;;;;;;;0.68;0.60;;;12.60;99.90;;;;;;4996461;28;20056;-78
2023/08/28 01:06:00;;;;;;;0.98;0.68;;;14.40;99.90;;;;;;4996805;28;20389;-77
2023/08/28 01:08:44;;;;;;;1.08;0.80;;;12.80;99.90;;;;;;4997203;28;20490;-75
2023/08/28 01:11:27;;;;;;;0.65;0.60;;;12.80;99.90;;;;;;4989883;28;20041;-74
2023/08/28 01:14:11;;;;;;;0.75;0.75;;;12.80;99.90;;;;;;5015897;28;20045;-74
2023/08/28 01:16:39;;;;;;;0.60;0.60;;;12.80;99.90;;;;;;5016639;28;20556;-74
2023/08/28 01:19:11;;;;;;;0.63;0.52;;;12.90;99.90;;;;;;5013717;28;20092;-77
2023/08/28 01:21:39;;;;;;;0.77;0.77;;;12.50;99.90;;;;;;5014122;28;20094;-75
2023/08/28 01:24:08;;;;;;;1.00;0.82;;;12.70;99.90;;;;;;5016261;28;20101;-75
2023/08/28 01:26:33;;;;;;;1.33;0.70;;;12.70;99.90;;;;;;4985008;28;20034;-75
2023/08/28 01:28:59;;;;;;;0.60;0.52;;;12.70;99.90;;;;;;5017468;28;20101;-76
2023/08/28 01:31:25;;;;;;;1.25;0.88;;;12.30;99.90;;;;;;5003089;28;20037;-78
2023/08/28 01:33:51;;;;;;;0.52;0.52;;;13.70;99.90;;;;;;4996206;28;20041;-77
2023/08/28 01:36:31;;;;;;;0.60;0.60;;;13.80;99.90;;;;;;4980133;28;20093;-78
2023/08/28 01:39:04;;;;;;;0.90;0.67;;;12.90;99.90;;;;;;4979448;28;20044;-77
2023/08/28 01:41:32;;;;;;;0.63;0.63;;;12.50;99.90;;;;;;4964472;28;20332;-78
2023/08/28 01:44:01;;;;;;;0.60;0.60;;;13.10;99.90;;;;;;4996099;28;20399;-78
2023/08/28 01:46:28;;;;;;;0.93;0.60;;;13.40;99.90;;;;;;4996347;28;20180;-82
2023/08/28 01:48:54;;;;;;;0.50;0.50;;;12.30;99.90;;;;;;4980817;28;20081;-81
2023/08/28 01:51:21;;;;;;;1.67;1.02;;;12.20;99.90;;;;;;4996553;28;20077;-81
2023/08/28 01:53:47;;;;;;;0.85;0.80;;;12.50;99.90;;;;;;4996027;28;20040;-82
2023/08/28 01:56:19;;;;;;;0.70;0.65;;;12.20;99.90;;;;;;4980992;28;20057;-81
2023/08/28 01:58:56;;;;;;;0.50;0.50;;;12.50;99.90;;;;;;4981777;28;20046;-81
2023/08/28 02:01:24;;;;;;;1.23;0.73;;;12.50;99.90;;;;;;4982361;28;20037;-76
2023/08/28 02:03:49;;;;;;;0.70;0.70;;;12.50;99.90;;;;;;4979677;28;20029;-78
2023/08/28 02:06:15;;;;;;;3.80;0.90;;;13.80;99.90;;;;;;4996338;28;20096;-81
2023/08/28 02:08:41;;;;;;;1.10;0.80;;;12.50;99.90;;;;;;4981544;28;20052;-81
2023/08/28 02:11:07;;;;;;;0.90;0.60;;;12.20;99.90;;;;;;4996857;28;20409;-81
2023/08/28 02:13:32;;;;;;;2.05;0.80;;;12.50;99.90;;;;;;4996697;28;20473;-81
2023/08/28 02:15:59;;;;;;;0.68;0.68;;;13.00;99.90;;;;;;4995779;28;20038;-81
2023/08/28 02:18:25;;;;;;;0.80;0.80;;;12.10;99.90;;;;;;4995471;28;20049;-80
2023/08/28 02:20:50;;;;;;;0.80;0.80;;;12.50;99.90;;;;;;4979387;28;20501;-81
2023/08/28 02:23:16;;;;;;;1.38;0.80;;;12.10;99.90;;;;;;4979304;28;20042;-81
2023/08/28 02:25:43;;;;;;;1.13;0.80;;;12.10;99.90;;;;;;4979313;28;20041;-80
2023/08/28 02:28:09;;;;;;;1.38;0.65;;;12.00;99.90;;;;;;4995506;28;20042;-81
2023/08/28 02:30:34;;;;;;;0.60;0.60;;;12.10;99.90;;;;;;4979288;28;20042;-81
2023/08/28 02:33:00;;;;;;;0.60;0.60;;;12.30;99.90;;;;;;4995707;28;20068;-81
2023/08/28 02:35:25;;;;;;;1.77;0.70;;;13.20;99.90;;;;;;4995555;28;20095;-81
2023/08/28 02:37:51;;;;;;;0.85;0.85;;;12.40;99.90;;;;;;4979414;28;20046;-81
2023/08/28 02:40:17;;;;;;;0.80;0.80;;;12.20;99.90;;;;;;4979243;28;20034;-81
2023/08/28 02:42:42;;;;;;;1.67;1.30;;;12.00;99.90;;;;;;4995641;28;20543;-81
2023/08/28 02:45:08;;;;;;;1.23;1.00;;;12.20;99.90;;;;;;4995168;28;20049;-81
2023/08/28 02:47:34;;;;;;;1.10;1.00;;;12.40;99.90;;;;;;4995232;28;20038;-81
2023/08/28 02:50:00;;;;;;;0.70;0.70;;;12.40;99.90;;;;;;4997179;28;20443;-81
2023/08/28 02:52:25;;;;;;;0.75;0.73;;;13.60;99.90;;;;;;4998861;28;20034;-81
2023/08/28 02:54:51;;;;;;;1.98;0.90;;;12.00;99.90;;;;;;4998567;28;20165;-81
2023/08/28 02:57:17;;;;;;;0.88;0.80;;;12.30;99.90;;;;;;4998775;28;20069;-80
2023/08/28 02:59:43;;;;;;;1.30;1.20;;;12.30;99.90;;;;;;4998573;28;20045;-81
2023/08/28 03:02:09;;;;;;;0.82;0.82;;;12.40;99.90;;;;;;4998730;28;20044;-80
2023/08/28 03:04:35;;;;;;;0.95;0.85;;;12.00;99.90;;;;;;4982654;28;20030;-81
2023/08/28 03:07:01;;;;;;;0.80;0.80;;;12.50;99.90;;;;;;4982379;28;20072;-78
2023/08/28 03:09:27;;;;;;;0.80;0.80;;;12.30;99.90;;;;;;4998540;28;20046;-78
2023/08/28 03:11:52;;;;;;;1.13;1.02;;;12.10;99.90;;;;;;4982334;28;20405;-78
2023/08/28 03:14:18;;;;;;;1.25;1.15;;;12.80;99.90;;;;;;4998654;28;20041;-78
2023/08/28 03:16:46;;;;;;;0.85;0.85;;;12.30;99.90;;;;;;4998643;28;20044;-78
2023/08/28 03:19:12;;;;;;;1.05;0.98;;;12.30;99.90;;;;;;4998349;28;20042;-80
2023/08/28 03:21:37;;;;;;;1.75;1.20;;;11.90;99.90;;;;;;4998346;28;20036;-80
2023/08/28 03:24:03;;;;;;;1.38;1.00;;;12.10;99.90;;;;;;4982134;28;20459;-80
2023/08/28 03:26:29;;;;;;;1.35;1.25;;;12.20;99.90;;;;;;4998664;28;20489;-79
2023/08/28 03:28:55;;;;;;;1.55;1.25;;;12.00;99.90;;;;;;4998324;28;20081;-78
2023/08/28 03:31:21;;;;;;;1.25;1.15;;;13.50;99.90;;;;;;4998226;28;20080;-79
2023/08/28 03:33:47;;;;;;;1.10;1.00;;;11.90;99.90;;;;;;4982196;28;20402;-78
2023/08/28 03:36:13;;;;;;;1.25;1.05;;;12.20;99.90;;;;;;4965777;28;20037;-78
2023/08/28 03:38:39;;;;;;;1.30;1.02;;;12.90;99.90;;;;;;4998042;28;20512;-80
2023/08/28 03:41:04;;;;;;;1.00;1.00;;;13.10;99.90;;;;;;4998272;28;20501;-80
2023/08/28 03:43:30;;;;;;;1.02;1.02;;;12.50;99.90;;;;;;4981909;28;20061;-80
2023/08/28 03:45:55;;;;;;;1.65;1.38;;;12.50;99.90;;;;;;4981634;28;20033;-81
2023/08/28 03:48:21;;;;;;;1.58;1.20;;;12.60;99.90;;;;;;4998116;28;20049;-78
2023/08/28 03:50:46;;;;;;;0.93;0.93;;;12.20;99.90;;;;;;4997857;28;20034;-78
2023/08/28 03:53:12;;;;;;;1.83;1.25;;;12.20;99.90;;;;;;4981875;28;20053;-78
2023/08/28 03:55:38;;;;;;;1.58;1.48;;;11.80;99.90;;;;;;4981263;28;20117;-78
2023/08/28 03:58:04;;;;;;;1.20;1.10;;;12.20;99.90;;;;;;4997571;28;20053;-78
2023/08/28 04:00:32;;;;;;;1.58;1.15;;;11.80;99.90;;;;;;4981543;28;20034;-78
2023/08/28 04:02:58;;;;;;;1.08;1.08;;;11.90;99.90;;;;;;4997666;28;20045;-78
2023/08/28 04:05:26;;;;;;;1.25;1.15;;;12.10;99.90;;;;;;4997532;28;20084;-78
2023/08/28 04:07:52;;;;;;;1.20;1.10;;;12.10;99.90;;;;;;4997730;28;20129;-78
2023/08/28 04:10:18;;;;;;;0.90;0.90;;;12.10;99.90;;;;;;4997440;28;20041;-78
2023/08/28 04:12:44;;;;;;;1.20;1.10;;;11.80;99.90;;;;;;4997713;28;20038;-78
2023/08/28 04:15:10;;;;;;;1.50;1.30;;;11.80;99.90;;;;;;4997529;28;20057;-78
2023/08/28 04:17:36;;;;;;;0.88;0.88;;;13.40;99.90;;;;;;4997299;28;20049;-79
2023/08/28 04:20:12;;;;;;;1.25;1.15;;;11.70;99.90;;;;;;4981335;28;20041;-78
2023/08/28 04:22:46;;;;;;;1.27;1.17;;;12.10;99.90;;;;;;4997475;28;20052;-78
2023/08/28 04:25:13;;;;;;;1.30;1.20;;;12.10;99.90;;;;;;4980948;28;20132;-78
2023/08/28 04:27:40;;;;;;;1.20;1.10;;;11.80;99.90;;;;;;4981347;28;20034;-81
2023/08/28 04:30:08;;;;;;;1.42;1.20;;;11.70;99.90;;;;;;4981176;28;20077;-81
2023/08/28 04:32:34;;;;;;;1.42;1.20;;;12.00;99.90;;;;;;4997010;28;20038;-81
2023/08/28 04:35:00;;;;;;;1.30;1.20;;;12.00;99.90;;;;;;4980925;28;20116;-81
2023/08/28 04:37:26;;;;;;;0.98;0.88;;;12.20;99.90;;;;;;4980636;28;20096;-81
2023/08/28 04:39:53;;;;;;;2.25;1.00;;;11.60;99.90;;;;;;4980675;28;20143;-81
2023/08/28 04:42:19;;;;;;;1.10;1.00;;;12.40;99.90;;;;;;4997112;28;20049;-81
2023/08/28 04:44:45;;;;;;;1.23;1.13;;;11.60;99.90;;;;;;4996989;28;20033;-80
2023/08/28 04:47:12;;;;;;;1.10;1.00;;;12.20;99.90;;;;;;4997034;28;20076;-80
2023/08/28 04:49:38;;;;;;;1.00;1.00;;;12.60;99.90;;;;;;4996724;28;20056;-80
2023/08/28 04:52:04;;;;;;;1.20;1.10;;;12.20;99.90;;;;;;4996783;28;20041;-80
2023/08/28 04:54:29;;;;;;;1.00;0.90;;;12.00;99.90;;;;;;4996370;28;20041;-81
2023/08/28 04:56:57;;;;;;;1.08;1.00;;;12.10;99.90;;;;;;4980736;28;20088;-81
2023/08/28 04:59:23;;;;;;;1.10;1.05;;;12.00;99.90;;;;;;4980266;28;20042;-81
2023/08/28 05:01:49;;;;;;;3.05;1.10;;;12.00;99.90;;;;;;4980290;28;20112;-82
2023/08/28 05:04:14;;;;;;;1.30;1.20;;;12.00;99.90;;;;;;4996629;28;20559;-83
2023/08/28 05:06:40;;;;;;;1.02;0.98;;;12.00;99.90;;;;;;4980110;28;20053;-83
2023/08/28 05:09:05;;;;;;;1.10;1.00;;;12.10;99.90;;;;;;4980466;28;20525;-83
2023/08/28 05:11:31;;;;;;;1.08;1.00;;;11.70;99.90;;;;;;4980143;28;20052;-82
2023/08/28 05:13:57;;;;;;;1.27;1.17;;;12.10;99.90;;;;;;4979777;28;20096;-82
2023/08/28 05:16:23;;;;;;;1.20;1.10;;;12.10;99.90;;;;;;4996463;28;20653;-82
2023/08/28 05:18:49;;;;;;;1.10;1.02;;;12.90;99.90;;;;;;4980049;28;20137;-82
2023/08/28 05:21:14;;;;;;;1.20;1.10;;;12.10;99.90;;;;;;4996134;28;20042;-82
2023/08/28 05:23:40;;;;;;;0.95;0.90;;;12.30;99.90;;;;;;4996152;28;20536;-82
2023/08/28 05:26:05;;;;;;;1.00;1.00;;;11.90;99.90;;;;;;4996316;28;20041;-83
2023/08/28 05:28:34;;;;;;;3.53;1.35;;;12.10;99.90;;;;;;4996036;28;20073;-85
2023/08/28 05:31:00;;;;;;;1.20;1.10;;;12.50;99.90;;;;;;4996244;28;20069;-86
2023/08/28 05:33:26;;;;;;;1.33;1.23;;;12.20;99.90;;;;;;4997340;28;20049;-84
2023/08/28 05:35:52;;;;;;;1.20;1.08;;;12.00;99.90;;;;;;4980665;28;20038;-87
2023/08/28 05:38:19;;;;;;;0.90;0.90;;;12.20;99.90;;;;;;4980596;28;20071;-91
2023/08/28 05:40:45;;;;;;;1.40;1.30;;;11.80;99.90;;;;;;4996830;28;20048;-87
2023/08/28 05:43:11;;;;;;;1.10;1.10;;;11.90;99.90;;;;;;4980325;28;20050;-86
2023/08/28 05:45:37;;;;;;;1.25;1.15;;;12.00;99.90;;;;;;4981871;28;20081;-88
2023/08/28 05:48:03;;;;;;;0.95;0.95;;;12.50;99.90;;;;;;4980823;28;20037;-86
2023/08/28 05:50:29;;;;;;;1.27;1.17;;;12.60;99.90;;;;;;4980218;28;20073;-86
2023/08/28 05:52:55;;;;;;;0.90;0.90;;;14.00;99.90;;;;;;4996053;28;20472;-86
2023/08/28 05:55:20;;;;;;;1.00;0.80;;;12.20;99.90;;;;;;4992714;28;20062;-87
2023/08/28 05:57:46;;;;;;;0.98;0.93;;;12.70;99.90;;;;;;4977261;28;20050;-88
2023/08/28 06:00:13;;;;;;;1.52;0.90;;;12.50;99.90;;;;;;4976686;28;20045;-87
2023/08/28 06:02:40;;;;;;;1.10;1.00;;;12.80;99.90;;;;;;4992793;28;20422;-87
2023/08/28 06:05:07;;;;;;;0.90;0.90;;;14.80;99.90;;;;;;4977664;28;20042;-89
2023/08/28 06:07:33;;;;;;;1.25;1.15;;;12.30;99.90;;;;;;4976816;28;20485;-89
2023/08/28 06:09:59;;;;;;;1.23;0.80;;;14.60;99.90;;;;;;4978389;28;20030;-89
2023/08/28 06:12:25;;;;;;;1.00;1.00;;;13.10;99.90;;;;;;4977505;28;20086;-88
2023/08/28 06:14:50;;;;;;;1.10;1.00;;;13.10;99.90;;;;;;4992862;28;20042;-88
2023/08/28 06:17:16;;;;;;;0.95;0.90;;;13.20;99.90;;;;;;4976909;28;20489;-86
2023/08/28 06:19:42;;;;;;;1.10;0.90;;;13.30;99.90;;;;;;4992409;28;20042;-86
2023/08/28 06:22:07;;;;;;;0.85;0.85;;;15.30;99.90;;;;;;4992463;28;20461;-87
2023/08/28 06:24:33;;;;;;;1.20;1.10;;;13.40;99.90;;;;;;4977539;28;20034;-87
2023/08/28 06:26:59;;;;;;;0.90;0.90;;;14.00;99.90;;;;;;4996341;28;20475;-87
2023/08/28 06:29:25;;;;;;;0.75;0.75;;;15.60;99.90;;;;;;4996536;28;20418;-88
2023/08/28 06:31:51;;;;;;;0.90;0.90;;;13.60;99.90;;;;;;4996378;28;20053;-89
2023/08/28 06:34:16;;;;;;;0.70;0.70;;;14.70;99.90;;;;;;4996512;28;20049;-87
2023/08/28 06:36:43;;;;;;;0.93;0.80;;;14.20;99.90;;;;;;4979780;28;20046;-87
2023/08/28 06:39:08;;;;;;;1.95;1.10;;;14.00;99.90;;;;;;4963644;28;20105;-89
2023/08/28 06:41:34;;;;;;;0.85;0.80;;;14.70;99.90;;;;;;4995813;28;20034;-87
2023/08/28 06:44:00;;;;;;;0.93;0.93;;;15.60;99.90;;;;;;4998152;28;20486;-88
2023/08/28 06:46:26;;;;;;;1.13;1.00;;;14.40;99.90;;;;;;4995950;28;20049;-86
2023/08/28 06:48:52;;;;;;;0.60;0.60;;;14.50;99.90;;;;;;4995699;28;20074;-87
2023/08/28 06:51:19;;;;;;;0.75;0.75;;;15.70;99.90;;;;;;4979356;28;20057;-88
2023/08/28 06:53:45;;;;;;;0.73;0.70;;;14.70;99.90;;;;;;4995817;28;20537;-86
2023/08/28 06:56:10;;;;;;;0.90;0.90;;;14.80;99.90;;;;;;4995400;28;20058;-87
2023/08/28 06:58:36;;;;;;;0.90;0.88;;;14.80;99.90;;;;;;4995575;28;20043;-86
2023/08/28 07:01:02;;;;;;;0.88;0.88;;;15.00;99.90;;;;;;4979498;28;20337;-88
2023/08/28 07:03:28;;;;;;;1.00;0.70;;;15.60;99.90;;;;;;4979288;28;20093;-86
2023/08/28 07:05:53;;;;;;;1.13;1.02;;;14.90;99.90;;;;;;4995558;28;20041;-87
2023/08/28 07:08:19;;;;;;;0.73;0.73;;;14.90;99.90;;;;;;4995658;28;20088;-86
2023/08/28 07:10:45;;;;;;;0.63;0.60;;;15.20;99.90;;;;;;4995271;28;20077;-86
2023/08/28 07:13:10;;;;;;;0.80;0.80;;;15.30;99.90;;;;;;4995446;28;20569;-87
2023/08/28 07:15:36;;;;;;;0.82;0.82;;;;;;;;;;4979300;28;20129;-86
2023/08/28 07:18:03;;;;;;;1.00;0.80;;;15.50;99.90;;;;;;4979634;28;20077;-86
2023/08/28 07:20:28;;;;;;;1.13;0.77;;;15.60;99.90;;;;;;4978811;28;20046;-86
2023/08/28 07:22:54;;;;;;;0.60;0.60;;;17.20;99.90;;;;;;4994988;28;20038;-87
2023/08/28 07:25:23;;;;;;;0.70;0.68;;;15.80;99.90;;;;;;4979049;28;20137;-86
2023/08/28 07:27:50;;;;;;;0.65;0.65;;;15.80;99.90;;;;;;4995142;28;20038;-81
2023/08/28 07:30:16;;;;;;;0.50;0.50;;;16.90;99.90;;;;;;4995409;28;20469;-82
2023/08/28 07:32:41;;;;;;;0.70;0.70;;;16.00;99.90;;;;;;4978745;28;20085;-82
2023/08/28 07:35:08;;;;;;;1.05;0.60;;;17.10;99.90;;;;;;4978105;28;20037;-81
2023/08/28 07:37:34;;;;;;;0.70;0.70;;;16.20;99.90;;;;;;4978692;28;20039;-81
2023/08/28 07:40:05;;;;;;;3.10;0.80;;;16.30;99.90;;;;;;4994719;28;20125;-81
2023/08/28 07:42:32;;;;;;;1.02;0.77;;;16.40;99.90;;;;;;4995213;28;20462;-81
2023/08/28 07:44:58;;;;;;;0.40;0.40;;;16.70;99.90;;;;;;4978373;28;20177;-82
2023/08/28 07:47:25;;;;;;;1.08;0.70;;;17.30;99.90;;;;;;4995017;28;20380;-82
2023/08/28 07:49:51;;;;;;;0.50;0.50;;;16.60;99.90;;;;;;4962752;28;20046;-81
2023/08/28 07:52:16;;;;;;;0.55;0.38;;;16.60;99.90;;;;;;4978614;28;20100;-82
2023/08/28 07:54:42;;;;;;;0.50;0.50;;;17.20;99.90;;;;;;4978387;28;20461;-82
2023/08/28 07:57:08;;;;;;;0.80;0.70;;;16.80;99.90;;;;;;4978204;28;20046;-83
2023/08/28 07:59:33;;;;;;;0.75;0.68;;;17.10;99.90;;;;;;4994177;28;20100;-83
2023/08/28 08:01:59;;;;;;;0.50;0.50;;;17.00;99.90;;;;;;4994188;28;20034;-82
2023/08/28 08:04:26;;;;;;;0.93;0.47;;;17.10;99.90;;;;;;4994286;28;20418;-82
2023/08/28 08:06:51;;;;;;;0.82;0.63;;;17.30;99.90;;;;;;4978039;28;20073;-82
2023/08/28 08:09:17;;;;;;;0.60;0.45;;;17.20;99.90;;;;;;4994187;28;20528;-82
2023/08/28 08:11:43;;;;;;;0.75;0.50;;;17.30;99.90;;;;;;4994104;28;20498;-82
2023/08/28 08:14:09;;;;;;;0.43;0.35;;;17.40;99.90;;;;;;4977846;28;20050;-82
2023/08/28 08:16:34;;;;;;;0.38;0.38;;;18.40;99.90;;;;;;4994308;28;20393;-82
2023/08/28 08:19:00;;;;;;;0.50;0.28;;;17.60;99.90;;;;;;4994384;28;20050;-82
2023/08/28 08:21:26;;;;;;;0.57;0.55;;;17.70;99.90;;;;;;4977826;28;20043;-82
2023/08/28 08:23:52;;;;;;;1.02;0.73;;;17.80;99.90;;;;;;4993852;28;20553;-82
2023/08/28 08:26:18;;;;;;;0.70;0.50;;;18.20;99.90;;;;;;4993952;28;20413;-83
2023/08/28 08:28:43;;;;;;;0.47;0.43;;;18.10;99.90;;;;;;4977902;28;20046;-81
2023/08/28 08:31:09;;;;;;;0.40;0.40;;;18.10;99.90;;;;;;4993740;28;20049;-81
2023/08/28 08:33:34;;;;;;;0.22;0.22;;;19.40;99.90;;;;;;4993686;28;20042;-82
2023/08/28 08:36:00;;;;;;;0.40;0.40;;;18.10;99.90;;;;;;4993617;28;20112;-80
2023/08/28 08:38:26;;;;;;;0.43;0.32;;;18.20;99.90;;;;;;4977491;28;20472;-86
2023/08/28 08:40:58;;;;;;;0.32;0.32;;;18.20;99.90;;;;;;4993809;28;20132;-88
2023/08/28 08:43:25;;;;;;;0.57;0.50;;;18.20;99.90;;;;;;4993504;28;20100;-88
2023/08/28 08:46:00;;;;;;;0.50;0.50;;;18.20;99.90;;;;;;4993352;28;20046;-87
2023/08/28 08:48:27;;;;;;;0.30;0.30;;;18.10;99.90;;;;;;4992788;28;20473;-81
2023/08/28 08:51:04;;;;;;;1.20;0.40;;;18.20;99.90;;;;;;4977088;28;20042;-81
2023/08/28 08:53:36;;;;;;;0.35;0.35;;;18.30;99.90;;;;;;4977361;28;20042;-81
2023/08/28 08:56:05;;;;;;;0.32;0.30;;;18.40;99.90;;;;;;4976859;28;20490;-81
2023/08/28 08:58:31;;;;;;;0.30;0.30;;;18.70;99.90;;;;;;4993257;28;20116;-86
2023/08/28 09:00:58;;;;;;;0.30;0.30;;;18.40;99.90;;;;;;4993535;28;20038;-86
2023/08/28 09:03:25;;;;;;;0.55;0.40;;;18.40;99.90;;;;;;4977125;28;20046;-86
2023/08/28 09:05:52;;;;;;;0.90;0.52;;;18.50;99.90;;;;;;4993391;28;20050;-86
2023/08/28 09:08:18;;;;;;;0.20;0.20;;;19.70;99.90;;;;;;4993454;28;20521;-87
2023/08/28 09:10:48;;;;;;;0.63;0.52;;;18.70;99.90;;;;;;4993279;28;20490;-85
2023/08/28 09:13:13;;;;;;;0.50;0.50;;;18.80;99.90;;;;;;4992935;28;20049;-87
2023/08/28 09:15:39;;;;;;;0.40;0.40;;;18.80;99.50;;;;;;4992947;28;20042;-86
2023/08/28 09:18:05;;;;;;;0.38;0.38;;;18.70;99.30;;;;;;4976627;28;20054;-86
2023/08/28 09:20:31;;;;;;;0.43;0.43;;;18.50;98.30;;;;;;4976551;28;20034;-86
2023/08/28 09:22:57;;;;;;;1.42;0.55;;;18.40;98.40;;;;;;4992764;28;20450;-86
2023/08/28 09:25:23;;;;;;;0.30;0.30;;;18.30;98.40;;;;;;4976595;28;20045;-85
2023/08/28 09:27:53;;;;;;;0.40;0.30;;;18.10;98.30;;;;;;4976551;28;20479;-81
2023/08/28 09:30:32;;;;;;;0.30;0.30;;;18.20;99.80;;;;;;4977169;28;20057;-81
2023/08/28 09:33:00;;;;;;;0.40;0.40;;;18.30;98.50;;;;;;4976704;28;20513;-80
2023/08/28 09:35:27;;;;;;;0.43;0.43;;;18.50;99.90;;;;;;4992768;28;20050;-79
2023/08/28 09:37:57;;;;;;;0.60;0.50;;;18.60;99.40;;;;;;4992905;28;20046;-79
2023/08/28 09:40:27;;;;;;;0.30;0.30;;;18.50;97.20;;;;;;4976501;28;20041;-79
2023/08/28 09:42:52;;;;;;;0.57;0.50;;;18.40;97.80;;;;;;4976234;28;20042;-79
2023/08/28 09:45:18;;;;;;;1.55;0.65;;;18.20;97.60;;;;;;4992468;28;20093;-80
2023/08/28 09:47:44;;;;;;;0.52;0.50;;;18.10;97.30;;;;;;4976516;28;20038;-79
2023/08/28 09:50:10;;;;;;;0.50;0.50;;;18.10;98.20;;;;;;4976445;28;20038;-79
2023/08/28 09:52:36;;;;;;;0.57;0.55;;;18.20;98.60;;;;;;4992388;28;20125;-79
2023/08/28 09:55:06;;;;;;;0.40;0.40;;;18.40;96.80;;;;;;4992455;28;20545;-79
2023/08/28 09:57:32;;;;;;;0.85;0.68;;;18.40;92.90;;;;;;4992424;28;20092;-79
2023/08/28 09:59:58;;;;;;;0.63;0.30;;;18.60;92.90;;;;;;4975852;28;20406;-79
2023/08/28 10:02:27;;;;;;;0.47;0.40;;;18.80;92.80;;;;;;4976453;28;20077;-79
2023/08/28 10:04:56;;;;;;;0.95;0.50;;;19.00;91.60;;;;;;4992505;28;20042;-79
2023/08/28 10:07:23;;;;;;;0.40;0.40;;;19.20;90.80;;;;;;4992789;28;20054;-80
2023/08/28 10:09:51;;;;;;;0.38;0.38;;;19.20;91.30;;;;;;4976116;28;20440;-79
2023/08/28 10:12:17;;;;;;;0.82;0.60;;;18.90;88.00;;;;;;4976296;28;20398;-79
2023/08/28 10:14:44;;;;;;;0.70;0.70;;;19.40;78.10;;;;;;4976295;28;20042;-78
2023/08/28 10:17:13;;;;;;;0.40;0.40;;;18.80;80.70;;;;;;4992552;28;20137;-84
2023/08/28 10:19:45;;;;;;;0.50;0.50;;;18.60;80.70;;;;;;4976808;28;20089;-85
2023/08/28 10:22:12;;;;;;;0.20;0.20;;;18.50;82.70;;;;;;4977564;28;20518;-81
2023/08/28 10:24:43;;;;;;;0.50;0.50;;;18.00;83.40;;;;;;4977386;28;20041;-84
2023/08/28 10:27:10;;;;;;;0.60;0.60;;;18.70;82.90;;;;;;4977133;28;20050;-86
2023/08/28 10:29:37;;;;;;;0.30;0.30;;;19.20;89.80;;;;;;4976915;28;20054;-83
2023/08/28 10:32:13;;;;;;;0.30;0.30;;;19.20;89.60;;;;;;4976293;28;20125;-83
2023/08/28 10:34:39;;;;;;;0.32;0.30;;;19.40;84.20;;;;;;4992558;28;20125;-83
2023/08/28 10:37:07;;;;;;;0.40;0.40;;;19.40;60.50;;;;;;4992052;28;20042;-80
2023/08/28 10:39:33;;;;;;;0.35;0.30;;;19.70;61.70;;;;;;4992027;28;20086;-78
2023/08/28 10:42:00;;;;;;;0.52;0.52;;;19.90;54.10;;;;;;4976028;28;20081;-78
2023/08/28 10:44:26;;;;;;;0.38;0.38;;;20.20;58.70;;;;;;4992158;28;20046;-79
2023/08/28 10:46:53;;;;;;;0.50;0.30;;;20.40;22.40;;;;;;4991854;28;20034;-79
2023/08/28 10:49:18;;;;;;;0.50;0.50;;;20.30;26.70;;;;;;4975952;28;20042;-77
2023/08/28 10:51:47;;;;;;;0.40;0.40;;;20.30;22.70;;;;;;4992078;28;20125;-80
2023/08/28 10:54:12;;;;;;;0.50;0.50;;;20.30;99.90;;;;;;4991754;28;20410;-79
2023/08/28 10:56:39;;;;;;;0.60;0.60;;;20.30;99.90;;;;;;4975404;28;20059;-81
2023/08/28 10:59:24;;;;;;;0.85;0.50;;;20.10;99.90;;;;;;4991800;28;20513;-78
2023/08/28 11:02:02;;;;;;;0.40;0.40;;;19.80;1.00;;;;;;4991851;28;20046;-79
2023/08/28 11:04:36;;;;;;;0.40;0.40;;;19.60;99.90;;;;;;4975543;28;20121;-78
2023/08/28 11:07:02;;;;;;;0.60;0.60;;;19.50;99.90;;;;;;4991887;28;20391;-79
2023/08/28 11:09:28;;;;;;;0.60;0.60;;;19.30;99.90;;;;;;4991688;28;20046;-79
2023/08/28 11:12:00;;;;;;;0.32;0.32;;;19.40;30.30;;;;;;4994613;28;20042;-80
2023/08/28 11:14:39;;;;;;;0.70;0.50;;;19.10;99.90;;;;;;4978903;28;20042;-80
2023/08/28 11:17:12;;;;;;;0.43;0.43;;;19.20;1.00;;;;;;4995333;28;20038;-84
2023/08/28 11:19:53;;;;;;;0.63;0.63;;;19.20;99.90;;;;;;4979104;28;20081;-84
2023/08/28 11:22:38;;;;;;;0.52;0.52;;;19.80;99.90;;;;;;4995344;28;20077;-84
2023/08/28 11:25:09;;;;;;;0.50;0.40;;;19.30;99.90;;;;;;4995394;28;20593;-84
2023/08/28 11:27:49;;;;;;;0.57;0.57;;;19.50;99.90;;;;;;4979462;28;20049;-86
2023/08/28 11:30:17;;;;;;;0.30;0.30;;;20.60;1.00;;;;;;4979057;28;20038;-86
2023/08/28 11:32:45;;;;;;;0.40;0.40;;;19.60;99.90;;;;;;4994950;28;20150;-86
2023/08/28 11:35:16;;;;;;;0.60;0.60;;;19.90;99.90;;;;;;4978873;28;20039;-85
2023/08/28 11:37:47;;;;;;;0.50;0.50;;;20.10;53.40;;;;;;4994897;28;20042;-80
2023/08/28 11:40:23;;;;;;;;;;;20.50;99.90;;;;;;4995158;28;20050;-80
2023/08/28 11:42:49;;;;;;;0.50;0.50;;;20.40;99.90;;;;;;4994891;28;19917;-81
2023/08/28 11:45:22;;;;;;;1.15;0.60;;;20.60;99.90;;;;;;4995089;28;20038;-81
2023/08/28 11:47:48;;;;;;;0.63;0.63;;;20.90;99.90;;;;;;4978868;28;20070;-81
2023/08/28 11:50:13;;;;;;;0.40;0.40;;;20.60;1.00;;;;;;4978549;28;20038;-80
2023/08/28 11:52:39;;;;;;;0.45;0.45;;;20.60;99.90;;;;;;4994896;28;20038;-80
2023/08/28 11:55:06;;;;;;;0.40;0.40;;;20.70;99.90;;;;;;4978380;28;20050;-81
2023/08/28 11:57:33;;;;;;;0.45;0.43;;;21.70;99.90;;;;;;4994892;28;20407;-79
2023/08/28 12:00:00;;;;;;;0.50;0.50;;;;;;;;;;4978212;28;20042;-81
2023/08/28 12:02:26;;;;;;;0.65;0.65;;;;;;;;;;4994462;28;20126;-79
2023/08/28 12:04:54;;;;;;;0.52;0.52;;;;;;;;;;4994571;28;20401;-79
2023/08/28 12:07:21;;;;;;;0.40;0.40;;;;;;;;;;4994732;28;20395;-80
2023/08/28 12:09:48;;;;;;;0.45;0.45;;;;;;;;;;4978025;28;20134;-80
2023/08/28 12:12:15;;;;;;;0.50;0.50;;;;;;;;;;4994209;28;20093;-78
2023/08/28 12:14:48;;;;;;;0.40;0.40;;;;;;;;;;4978029;28;20042;-80
2023/08/28 12:17:18;;;;;;;0.40;0.40;;;;;;;;;;4978261;28;20044;-79
2023/08/28 12:19:45;;;;;;;0.52;0.52;;;;;;;;;;4994205;28;20130;-79
2023/08/28 12:22:12;;;;;;;0.93;0.70;;;;;;;;;;4993942;28;20383;-80
2023/08/28 12:24:42;;;;;;;0.40;0.40;;;;;;;;;;4993979;28;20038;-79
2023/08/28 12:27:09;;;;;;;0.60;0.60;;;;;;;;;;4977977;28;20387;-79
2023/08/28 12:29:35;;;;;;;0.60;0.60;;;;;;;;;;4977746;28;20042;-80
2023/08/28 12:32:07;;;;;;;0.45;0.45;;;;;;;;;;4993814;28;20133;-79
2023/08/28 12:34:34;;;;;;;0.63;0.60;;;;;;;;;;4994242;28;20481;-79
2023/08/28 12:37:04;;;;;;;0.50;0.50;;;;;;;;;;4977987;28;20049;-79
2023/08/28 12:39:30;;;;;;;0.50;0.50;;;;;;;;;;4993802;28;20042;-80
2023/08/28 12:41:56;;;;;;;0.60;0.60;;;;;;;;;;4977660;28;20125;-79
2023/08/28 12:44:23;;;;;;;0.50;0.50;;;;;;;;;;4993826;28;20082;-80
2023/08/28 12:46:49;;;;;;;0.60;0.60;;;;;;;;;;4993567;28;20041;-79
2023/08/28 12:49:22;;;;;;;0.70;0.70;;;;;;;;;;4993730;28;20065;-80
2023/08/28 12:51:52;;;;;;;1.10;0.50;;;20.40;99.90;;;;;;4977762;28;20141;-80
2023/08/28 12:54:21;;;;;;;0.80;0.80;;;20.20;99.90;;;;;;4977340;28;20409;-81
2023/08/28 12:56:47;;;;;;;0.50;0.50;;;20.20;99.90;;;;;;4996907;28;20097;-81